sensor_id;sensor_type;location;lat;lon;timestamp;P1;durP1;ratioP1;P2;durP2;ratioP2
70071;SDS011;57434;42.794;23.302;2023-02-01T00:00:04;8.32;;;3.60;;
70071;SDS011;57434;42.794;23.302;2023-02-01T00:01:07;7.30;;;3.42;;
70071;SDS011;57434;42.794;23.302;2023-02-01T00:02:09;7.97;;;3.38;;
70071;SDS011;57434;42.794;23.302;2023-02-01T00:03:11;7.20;;;3.53;;
70071;SDS011;57434;42.794;23.302;2023-02-01T00:04:13;8.27;;;3.03;;
70071;SDS011;57434;42.794;23.302;2023-02-01T00:05:15;7.97;;;3.13;;
70071;SDS011;57434;42.794;23.302;2023-02-01T00:06:17;7.90;;;3.47;;
70071;SDS011;57434;42.794;23.302;2023-02-01T00:07:18;8.77;;;4.32;;
70071;SDS011;57434;42.794;23.302;2023-02-01T00:08:20;7.90;;;3.53;;
70071;SDS011;57434;42.794;23.302;2023-02-01T00:09:22;8.02;;;3.95;;
70071;SDS011;57434;42.794;23.302;2023-02-01T00:10:25;9.95;;;3.83;;
70071;SDS011;57434;42.794;23.302;2023-02-01T00:11:26;11.60;;;3.85;;
70071;SDS011;57434;42.794;23.302;2023-02-01T00:12:28;7.90;;;3.30;;
70071;SDS011;57434;42.794;23.302;2023-02-01T00:13:33;9.70;;;3.80;;
70071;SDS011;57434;42.794;23.302;2023-02-01T00:14:36;8.50;;;3.90;;
70071;SDS011;57434;42.794;23.302;2023-02-01T00:15:37;8.18;;;3.50;;
70071;SDS011;57434;42.794;23.302;2023-02-01T00:16:41;8.55;;;3.65;;
70071;SDS011;57434;42.794;23.302;2023-02-01T00:17:43;11.70;;;4.07;;
70071;SDS011;57434;42.794;23.302;2023-02-01T00:18:45;9.57;;;4.38;;
70071;SDS011;57434;42.794;23.302;2023-02-01T00:19:48;8.63;;;4.05;;
70071;SDS011;57434;42.794;23.302;2023-02-01T00:20:50;8.60;;;4.07;;
70071;SDS011;57434;42.794;23.302;2023-02-01T00:21:52;10.00;;;4.00;;
70071;SDS011;57434;42.794;23.302;2023-02-01T00:22:54;9.48;;;4.60;;
70071;SDS011;57434;42.794;23.302;2023-02-01T00:23:55;9.63;;;4.37;;
70071;SDS011;57434;42.794;23.302;2023-02-01T00:24:57;8.20;;;4.07;;
70071;SDS011;57434;42.794;23.302;2023-02-01T00:26:03;10.07;;;3.72;;
70071;SDS011;57434;42.794;23.302;2023-02-01T00:27:05;7.38;;;3.30;;
70071;SDS011;57434;42.794;23.302;2023-02-01T00:28:10;6.68;;;3.15;;
70071;SDS011;57434;42.794;23.302;2023-02-01T00:29:13;8.43;;;3.35;;
70071;SDS011;57434;42.794;23.302;2023-02-01T00:30:17;10.00;;;3.88;;
70071;SDS011;57434;42.794;23.302;2023-02-01T00:31:20;10.07;;;4.35;;
70071;SDS011;57434;42.794;23.302;2023-02-01T00:32:22;10.00;;;4.20;;
70071;SDS011;57434;42.794;23.302;2023-02-01T00:33:24;7.88;;;3.90;;
70071;SDS011;57434;42.794;23.302;2023-02-01T00:34:25;6.97;;;3.60;;
70071;SDS011;57434;42.794;23.302;2023-02-01T00:35:27;8.70;;;3.47;;
70071;SDS011;57434;42.794;23.302;2023-02-01T00:36:29;8.20;;;3.60;;
70071;SDS011;57434;42.794;23.302;2023-02-01T00:37:31;7.88;;;3.78;;
70071;SDS011;57434;42.794;23.302;2023-02-01T00:38:33;8.30;;;4.15;;
70071;SDS011;57434;42.794;23.302;2023-02-01T00:39:37;9.23;;;3.83;;
70071;SDS011;57434;42.794;23.302;2023-02-01T00:40:39;10.75;;;3.85;;
70071;SDS011;57434;42.794;23.302;2023-02-01T00:41:41;8.45;;;4.05;;
70071;SDS011;57434;42.794;23.302;2023-02-01T00:42:43;8.68;;;4.13;;
70071;SDS011;57434;42.794;23.302;2023-02-01T00:43:45;8.23;;;3.83;;
70071;SDS011;57434;42.794;23.302;2023-02-01T00:44:47;10.73;;;4.00;;
70071;SDS011;57434;42.794;23.302;2023-02-01T00:45:49;9.73;;;4.32;;
70071;SDS011;57434;42.794;23.302;2023-02-01T00:46:51;7.68;;;4.05;;
70071;SDS011;57434;42.794;23.302;2023-02-01T00:47:53;6.70;;;3.47;;
70071;SDS011;57434;42.794;23.302;2023-02-01T00:48:54;8.23;;;3.70;;
70071;SDS011;57434;42.794;23.302;2023-02-01T00:49:57;10.40;;;4.13;;
70071;SDS011;57434;42.794;23.302;2023-02-01T00:50:59;9.25;;;3.83;;
70071;SDS011;57434;42.794;23.302;2023-02-01T00:52:02;8.35;;;4.22;;
70071;SDS011;57434;42.794;23.302;2023-02-01T00:53:04;7.38;;;3.63;;
70071;SDS011;57434;42.794;23.302;2023-02-01T00:54:06;9.07;;;4.03;;
70071;SDS011;57434;42.794;23.302;2023-02-01T00:55:07;8.93;;;3.33;;
70071;SDS011;57434;42.794;23.302;2023-02-01T00:56:09;9.02;;;3.47;;
70071;SDS011;57434;42.794;23.302;2023-02-01T00:57:11;7.95;;;3.58;;
70071;SDS011;57434;42.794;23.302;2023-02-01T00:58:13;7.00;;;2.95;;
70071;SDS011;57434;42.794;23.302;2023-02-01T00:59:15;9.43;;;3.50;;
70071;SDS011;57434;42.794;23.302;2023-02-01T01:00:17;9.00;;;3.53;;
70071;SDS011;57434;42.794;23.302;2023-02-01T01:01:21;8.60;;;3.92;;
70071;SDS011;57434;42.794;23.302;2023-02-01T01:02:25;7.35;;;3.08;;
70071;SDS011;57434;42.794;23.302;2023-02-01T01:03:28;8.10;;;3.28;;
70071;SDS011;57434;42.794;23.302;2023-02-01T01:04:30;6.32;;;2.85;;
70071;SDS011;57434;42.794;23.302;2023-02-01T01:05:31;8.90;;;3.17;;
70071;SDS011;57434;42.794;23.302;2023-02-01T01:06:33;7.80;;;3.22;;
70071;SDS011;57434;42.794;23.302;2023-02-01T01:07:35;8.48;;;3.50;;
70071;SDS011;57434;42.794;23.302;2023-02-01T01:08:37;6.95;;;3.03;;
70071;SDS011;57434;42.794;23.302;2023-02-01T01:09:40;7.15;;;2.88;;
70071;SDS011;57434;42.794;23.302;2023-02-01T01:10:42;8.57;;;3.28;;
70071;SDS011;57434;42.794;23.302;2023-02-01T01:11:44;8.10;;;3.63;;
70071;SDS011;57434;42.794;23.302;2023-02-01T01:12:46;6.93;;;2.60;;
70071;SDS011;57434;42.794;23.302;2023-02-01T01:13:48;9.02;;;3.95;;
70071;SDS011;57434;42.794;23.302;2023-02-01T01:14:52;7.15;;;3.20;;
70071;SDS011;57434;42.794;23.302;2023-02-01T01:15:53;8.63;;;3.10;;
70071;SDS011;57434;42.794;23.302;2023-02-01T01:16:55;10.02;;;3.42;;
70071;SDS011;57434;42.794;23.302;2023-02-01T01:17:57;10.43;;;3.83;;
70071;SDS011;57434;42.794;23.302;2023-02-01T01:18:59;7.07;;;3.65;;
70071;SDS011;57434;42.794;23.302;2023-02-01T01:20:02;7.78;;;3.28;;
70071;SDS011;57434;42.794;23.302;2023-02-01T01:21:05;6.40;;;3.20;;
70071;SDS011;57434;42.794;23.302;2023-02-01T01:22:08;10.10;;;3.65;;
70071;SDS011;57434;42.794;23.302;2023-02-01T01:23:10;9.43;;;4.32;;
70071;SDS011;57434;42.794;23.302;2023-02-01T01:24:12;7.70;;;3.38;;
70071;SDS011;57434;42.794;23.302;2023-02-01T01:25:14;7.28;;;3.17;;
70071;SDS011;57434;42.794;23.302;2023-02-01T01:26:18;7.80;;;3.20;;
70071;SDS011;57434;42.794;23.302;2023-02-01T01:27:26;11.02;;;3.92;;
70071;SDS011;57434;42.794;23.302;2023-02-01T01:28:27;6.22;;;3.13;;
70071;SDS011;57434;42.794;23.302;2023-02-01T01:29:29;9.32;;;3.38;;
70071;SDS011;57434;42.794;23.302;2023-02-01T01:30:31;8.68;;;3.63;;
70071;SDS011;57434;42.794;23.302;2023-02-01T01:31:32;11.15;;;4.00;;
70071;SDS011;57434;42.794;23.302;2023-02-01T01:32:34;8.48;;;3.80;;
70071;SDS011;57434;42.794;23.302;2023-02-01T01:33:36;8.63;;;3.22;;
70071;SDS011;57434;42.794;23.302;2023-02-01T01:34:38;7.78;;;3.75;;
70071;SDS011;57434;42.794;23.302;2023-02-01T01:35:40;8.55;;;3.30;;
70071;SDS011;57434;42.794;23.302;2023-02-01T01:36:42;7.47;;;3.60;;
70071;SDS011;57434;42.794;23.302;2023-02-01T01:37:43;7.00;;;2.90;;
70071;SDS011;57434;42.794;23.302;2023-02-01T01:38:45;7.57;;;3.17;;
70071;SDS011;57434;42.794;23.302;2023-02-01T01:39:47;9.80;;;3.47;;
70071;SDS011;57434;42.794;23.302;2023-02-01T01:40:49;8.23;;;3.78;;
70071;SDS011;57434;42.794;23.302;2023-02-01T01:41:51;6.93;;;3.22;;
70071;SDS011;57434;42.794;23.302;2023-02-01T01:42:52;6.60;;;3.30;;
70071;SDS011;57434;42.794;23.302;2023-02-01T01:43:58;8.43;;;3.05;;
70071;SDS011;57434;42.794;23.302;2023-02-01T01:45:03;10.75;;;3.58;;
70071;SDS011;57434;42.794;23.302;2023-02-01T01:46:27;9.27;;;3.47;;
70071;SDS011;57434;42.794;23.302;2023-02-01T01:47:33;9.40;;;4.07;;
70071;SDS011;57434;42.794;23.302;2023-02-01T01:48:40;7.80;;;3.05;;
70071;SDS011;57434;42.794;23.302;2023-02-01T01:49:42;7.15;;;3.05;;
70071;SDS011;57434;42.794;23.302;2023-02-01T01:50:49;7.43;;;3.08;;
70071;SDS011;57434;42.794;23.302;2023-02-01T01:51:57;5.93;;;2.65;;
70071;SDS011;57434;42.794;23.302;2023-02-01T01:53:03;8.18;;;3.33;;
70071;SDS011;57434;42.794;23.302;2023-02-01T01:54:11;8.93;;;3.50;;
70071;SDS011;57434;42.794;23.302;2023-02-01T01:55:14;8.73;;;3.10;;
70071;SDS011;57434;42.794;23.302;2023-02-01T01:56:19;6.78;;;2.97;;
70071;SDS011;57434;42.794;23.302;2023-02-01T01:57:25;7.05;;;3.33;;
70071;SDS011;57434;42.794;23.302;2023-02-01T01:58:32;7.80;;;3.53;;
70071;SDS011;57434;42.794;23.302;2023-02-01T01:59:36;8.65;;;3.08;;
70071;SDS011;57434;42.794;23.302;2023-02-01T02:00:42;8.45;;;3.38;;
70071;SDS011;57434;42.794;23.302;2023-02-01T02:01:44;9.13;;;3.65;;
70071;SDS011;57434;42.794;23.302;2023-02-01T02:02:47;7.50;;;3.20;;
70071;SDS011;57434;42.794;23.302;2023-02-01T02:03:56;6.72;;;2.45;;
70071;SDS011;57434;42.794;23.302;2023-02-01T02:04:59;9.40;;;3.90;;
70071;SDS011;57434;42.794;23.302;2023-02-01T02:06:01;5.85;;;2.70;;
70071;SDS011;57434;42.794;23.302;2023-02-01T02:07:17;6.63;;;2.40;;
70071;SDS011;57434;42.794;23.302;2023-02-01T02:08:24;10.65;;;3.40;;
70071;SDS011;57434;42.794;23.302;2023-02-01T02:09:29;9.03;;;3.83;;
70071;SDS011;57434;42.794;23.302;2023-02-01T02:10:30;8.18;;;3.30;;
70071;SDS011;57434;42.794;23.302;2023-02-01T02:11:33;8.40;;;3.35;;
70071;SDS011;57434;42.794;23.302;2023-02-01T02:12:35;6.72;;;2.58;;
70071;SDS011;57434;42.794;23.302;2023-02-01T02:13:41;6.25;;;3.22;;
70071;SDS011;57434;42.794;23.302;2023-02-01T02:14:45;6.93;;;2.67;;
70071;SDS011;57434;42.794;23.302;2023-02-01T02:20:59;10.70;;;3.95;;
70071;SDS011;57434;42.794;23.302;2023-02-01T02:31:34;5.80;;;2.15;;
70071;SDS011;57434;42.794;23.302;2023-02-01T02:37:54;8.85;;;3.90;;
70071;SDS011;57434;42.794;23.302;2023-02-01T02:40:25;8.15;;;3.55;;
70071;SDS011;57434;42.794;23.302;2023-02-01T02:41:52;11.57;;;3.90;;
70071;SDS011;57434;42.794;23.302;2023-02-01T02:43:05;8.02;;;3.33;;
70071;SDS011;57434;42.794;23.302;2023-02-01T02:44:22;9.95;;;3.78;;
70071;SDS011;57434;42.794;23.302;2023-02-01T02:47:08;10.70;;;4.22;;
70071;SDS011;57434;42.794;23.302;2023-02-01T02:48:19;10.52;;;3.92;;
70071;SDS011;57434;42.794;23.302;2023-02-01T02:49:26;7.17;;;3.37;;
70071;SDS011;57434;42.794;23.302;2023-02-01T02:50:44;7.25;;;3.33;;
70071;SDS011;57434;42.794;23.302;2023-02-01T02:52:03;6.75;;;2.70;;
70071;SDS011;57434;42.794;23.302;2023-02-01T02:53:13;7.88;;;2.92;;
70071;SDS011;57434;42.794;23.302;2023-02-01T02:54:20;9.13;;;4.40;;
70071;SDS011;57434;42.794;23.302;2023-02-01T02:55:26;7.30;;;3.10;;
70071;SDS011;57434;42.794;23.302;2023-02-01T02:56:29;7.63;;;3.50;;
70071;SDS011;57434;42.794;23.302;2023-02-01T02:57:32;8.00;;;3.42;;
70071;SDS011;57434;42.794;23.302;2023-02-01T02:58:38;9.98;;;3.63;;
70071;SDS011;57434;42.794;23.302;2023-02-01T02:59:40;6.82;;;3.42;;
70071;SDS011;57434;42.794;23.302;2023-02-01T03:00:44;8.30;;;3.83;;
70071;SDS011;57434;42.794;23.302;2023-02-01T03:01:47;10.10;;;3.90;;
70071;SDS011;57434;42.794;23.302;2023-02-01T03:02:50;10.70;;;3.78;;
70071;SDS011;57434;42.794;23.302;2023-02-01T03:03:54;8.70;;;3.60;;
70071;SDS011;57434;42.794;23.302;2023-02-01T03:04:56;12.35;;;3.88;;
70071;SDS011;57434;42.794;23.302;2023-02-01T03:05:57;9.20;;;4.05;;
70071;SDS011;57434;42.794;23.302;2023-02-01T03:07:14;10.63;;;4.20;;
70071;SDS011;57434;42.794;23.302;2023-02-01T03:08:36;8.63;;;3.38;;
70071;SDS011;57434;42.794;23.302;2023-02-01T03:09:38;8.25;;;4.00;;
70071;SDS011;57434;42.794;23.302;2023-02-01T03:12:04;7.63;;;2.70;;
70071;SDS011;57434;42.794;23.302;2023-02-01T03:13:34;6.75;;;2.78;;
70071;SDS011;57434;42.794;23.302;2023-02-01T03:14:43;5.90;;;2.38;;
70071;SDS011;57434;42.794;23.302;2023-02-01T03:15:54;8.57;;;3.45;;
70071;SDS011;57434;42.794;23.302;2023-02-01T03:17:00;10.32;;;3.15;;
70071;SDS011;57434;42.794;23.302;2023-02-01T03:18:13;9.90;;;3.13;;
70071;SDS011;57434;42.794;23.302;2023-02-01T03:19:27;10.02;;;3.30;;
70071;SDS011;57434;42.794;23.302;2023-02-01T03:20:36;7.30;;;3.15;;
70071;SDS011;57434;42.794;23.302;2023-02-01T03:21:52;6.35;;;2.35;;
70071;SDS011;57434;42.794;23.302;2023-02-01T03:22:57;8.57;;;3.30;;
70071;SDS011;57434;42.794;23.302;2023-02-01T03:24:02;11.87;;;3.17;;
70071;SDS011;57434;42.794;23.302;2023-02-01T03:25:10;9.40;;;3.45;;
70071;SDS011;57434;42.794;23.302;2023-02-01T03:26:16;11.18;;;3.50;;
70071;SDS011;57434;42.794;23.302;2023-02-01T03:27:22;6.95;;;2.67;;
70071;SDS011;57434;42.794;23.302;2023-02-01T03:28:25;7.97;;;3.00;;
70071;SDS011;57434;42.794;23.302;2023-02-01T03:29:43;10.52;;;3.58;;
70071;SDS011;57434;42.794;23.302;2023-02-01T03:30:50;8.07;;;2.88;;
70071;SDS011;57434;42.794;23.302;2023-02-01T03:31:52;7.07;;;3.10;;
70071;SDS011;57434;42.794;23.302;2023-02-01T03:32:55;7.28;;;3.05;;
70071;SDS011;57434;42.794;23.302;2023-02-01T03:34:01;8.73;;;3.80;;
70071;SDS011;57434;42.794;23.302;2023-02-01T03:35:03;9.67;;;3.27;;
70071;SDS011;57434;42.794;23.302;2023-02-01T03:37:16;10.50;;;4.03;;
70071;SDS011;57434;42.794;23.302;2023-02-01T03:38:29;8.60;;;3.63;;
70071;SDS011;57434;42.794;23.302;2023-02-01T03:40:40;9.23;;;3.90;;
70071;SDS011;57434;42.794;23.302;2023-02-01T03:42:52;9.40;;;3.70;;
70071;SDS011;57434;42.794;23.302;2023-02-01T03:44:07;8.35;;;3.28;;
70071;SDS011;57434;42.794;23.302;2023-02-01T03:45:19;9.15;;;3.45;;
70071;SDS011;57434;42.794;23.302;2023-02-01T03:46:35;7.73;;;3.33;;
70071;SDS011;57434;42.794;23.302;2023-02-01T03:47:43;7.45;;;3.50;;
70071;SDS011;57434;42.794;23.302;2023-02-01T03:48:49;8.70;;;3.55;;
70071;SDS011;57434;42.794;23.302;2023-02-01T03:49:58;9.35;;;4.28;;
70071;SDS011;57434;42.794;23.302;2023-02-01T03:51:03;11.60;;;3.70;;
70071;SDS011;57434;42.794;23.302;2023-02-01T03:52:09;8.40;;;3.60;;
70071;SDS011;57434;42.794;23.302;2023-02-01T03:53:19;15.27;;;4.50;;
70071;SDS011;57434;42.794;23.302;2023-02-01T03:54:24;9.18;;;3.63;;
70071;SDS011;57434;42.794;23.302;2023-02-01T03:55:28;8.02;;;3.40;;
70071;SDS011;57434;42.794;23.302;2023-02-01T03:56:32;9.75;;;3.03;;
70071;SDS011;57434;42.794;23.302;2023-02-01T03:57:40;8.53;;;2.87;;
70071;SDS011;57434;42.794;23.302;2023-02-01T03:58:47;11.05;;;4.03;;
70071;SDS011;57434;42.794;23.302;2023-02-01T03:59:49;7.88;;;3.50;;
70071;SDS011;57434;42.794;23.302;2023-02-01T04:01:52;9.10;;;3.28;;
70071;SDS011;57434;42.794;23.302;2023-02-01T04:02:54;9.55;;;3.95;;
70071;SDS011;57434;42.794;23.302;2023-02-01T04:03:57;8.05;;;3.13;;
70071;SDS011;57434;42.794;23.302;2023-02-01T04:04:59;9.23;;;2.78;;
70071;SDS011;57434;42.794;23.302;2023-02-01T04:06:01;5.93;;;2.72;;
70071;SDS011;57434;42.794;23.302;2023-02-01T04:07:03;6.28;;;2.08;;
70071;SDS011;57434;42.794;23.302;2023-02-01T04:08:05;6.37;;;2.57;;
70071;SDS011;57434;42.794;23.302;2023-02-01T04:09:06;6.75;;;2.70;;
70071;SDS011;57434;42.794;23.302;2023-02-01T04:10:09;6.47;;;3.00;;
70071;SDS011;57434;42.794;23.302;2023-02-01T04:11:11;12.07;;;2.50;;
70071;SDS011;57434;42.794;23.302;2023-02-01T04:12:13;7.95;;;2.55;;
70071;SDS011;57434;42.794;23.302;2023-02-01T04:13:15;10.35;;;2.47;;
70071;SDS011;57434;42.794;23.302;2023-02-01T04:14:17;11.65;;;2.97;;
70071;SDS011;57434;42.794;23.302;2023-02-01T04:15:19;6.13;;;2.35;;
70071;SDS011;57434;42.794;23.302;2023-02-01T04:16:20;6.82;;;2.50;;
70071;SDS011;57434;42.794;23.302;2023-02-01T04:17:22;9.38;;;3.00;;
70071;SDS011;57434;42.794;23.302;2023-02-01T04:18:24;5.90;;;2.17;;
70071;SDS011;57434;42.794;23.302;2023-02-01T04:19:26;7.03;;;2.70;;
70071;SDS011;57434;42.794;23.302;2023-02-01T04:20:27;15.68;;;2.60;;
70071;SDS011;57434;42.794;23.302;2023-02-01T04:21:29;6.90;;;2.45;;
70071;SDS011;57434;42.794;23.302;2023-02-01T04:22:31;7.72;;;2.83;;
70071;SDS011;57434;42.794;23.302;2023-02-01T04:23:33;7.63;;;2.75;;
70071;SDS011;57434;42.794;23.302;2023-02-01T04:24:35;5.97;;;2.35;;
70071;SDS011;57434;42.794;23.302;2023-02-01T04:25:36;5.68;;;2.58;;
70071;SDS011;57434;42.794;23.302;2023-02-01T04:26:38;7.28;;;2.55;;
70071;SDS011;57434;42.794;23.302;2023-02-01T04:27:40;5.45;;;2.20;;
70071;SDS011;57434;42.794;23.302;2023-02-01T04:28:42;5.83;;;2.00;;
70071;SDS011;57434;42.794;23.302;2023-02-01T04:29:44;6.50;;;2.50;;
70071;SDS011;57434;42.794;23.302;2023-02-01T04:30:45;8.75;;;2.38;;
70071;SDS011;57434;42.794;23.302;2023-02-01T04:31:48;8.98;;;2.75;;
70071;SDS011;57434;42.794;23.302;2023-02-01T04:32:50;7.43;;;3.00;;
70071;SDS011;57434;42.794;23.302;2023-02-01T04:33:52;7.63;;;2.45;;
70071;SDS011;57434;42.794;23.302;2023-02-01T04:34:54;10.35;;;3.25;;
70071;SDS011;57434;42.794;23.302;2023-02-01T04:35:56;6.97;;;3.00;;
70071;SDS011;57434;42.794;23.302;2023-02-01T04:36:58;6.65;;;2.72;;
70071;SDS011;57434;42.794;23.302;2023-02-01T04:38:00;7.60;;;3.08;;
70071;SDS011;57434;42.794;23.302;2023-02-01T04:39:02;6.97;;;2.43;;
70071;SDS011;57434;42.794;23.302;2023-02-01T04:40:04;6.25;;;2.13;;
70071;SDS011;57434;42.794;23.302;2023-02-01T04:41:06;8.05;;;2.33;;
70071;SDS011;57434;42.794;23.302;2023-02-01T04:42:08;6.20;;;2.03;;
70071;SDS011;57434;42.794;23.302;2023-02-01T04:43:10;5.68;;;2.03;;
70071;SDS011;57434;42.794;23.302;2023-02-01T04:44:15;5.22;;;1.98;;
70071;SDS011;57434;42.794;23.302;2023-02-01T04:45:18;5.63;;;2.10;;
70071;SDS011;57434;42.794;23.302;2023-02-01T04:46:20;7.00;;;3.08;;
70071;SDS011;57434;42.794;23.302;2023-02-01T04:47:23;5.60;;;2.67;;
70071;SDS011;57434;42.794;23.302;2023-02-01T04:48:24;4.85;;;1.77;;
70071;SDS011;57434;42.794;23.302;2023-02-01T04:49:26;10.97;;;2.83;;
70071;SDS011;57434;42.794;23.302;2023-02-01T04:50:28;8.20;;;2.40;;
70071;SDS011;57434;42.794;23.302;2023-02-01T04:51:30;5.63;;;2.30;;
70071;SDS011;57434;42.794;23.302;2023-02-01T04:52:31;8.68;;;2.90;;
70071;SDS011;57434;42.794;23.302;2023-02-01T04:53:33;7.60;;;2.55;;
70071;SDS011;57434;42.794;23.302;2023-02-01T04:54:35;8.98;;;2.80;;
70071;SDS011;57434;42.794;23.302;2023-02-01T04:55:37;6.05;;;2.45;;
70071;SDS011;57434;42.794;23.302;2023-02-01T04:56:39;10.70;;;2.58;;
70071;SDS011;57434;42.794;23.302;2023-02-01T04:57:41;6.50;;;2.78;;
70071;SDS011;57434;42.794;23.302;2023-02-01T04:58:43;6.72;;;2.40;;
70071;SDS011;57434;42.794;23.302;2023-02-01T04:59:44;7.43;;;2.80;;
70071;SDS011;57434;42.794;23.302;2023-02-01T05:00:46;6.70;;;2.60;;
70071;SDS011;57434;42.794;23.302;2023-02-01T05:01:48;7.68;;;3.10;;
70071;SDS011;57434;42.794;23.302;2023-02-01T05:02:50;7.10;;;2.50;;
70071;SDS011;57434;42.794;23.302;2023-02-01T05:03:51;8.48;;;3.08;;
70071;SDS011;57434;42.794;23.302;2023-02-01T05:04:53;8.65;;;3.03;;
70071;SDS011;57434;42.794;23.302;2023-02-01T05:05:55;8.68;;;3.00;;
70071;SDS011;57434;42.794;23.302;2023-02-01T05:06:57;10.02;;;3.00;;
70071;SDS011;57434;42.794;23.302;2023-02-01T05:07:59;7.68;;;2.80;;
70071;SDS011;57434;42.794;23.302;2023-02-01T05:09:00;8.13;;;2.72;;
70071;SDS011;57434;42.794;23.302;2023-02-01T05:10:02;5.80;;;2.50;;
70071;SDS011;57434;42.794;23.302;2023-02-01T05:11:04;7.88;;;2.80;;
70071;SDS011;57434;42.794;23.302;2023-02-01T05:12:08;8.20;;;3.00;;
70071;SDS011;57434;42.794;23.302;2023-02-01T05:13:11;6.47;;;2.28;;
70071;SDS011;57434;42.794;23.302;2023-02-01T05:14:12;10.90;;;2.58;;
70071;SDS011;57434;42.794;23.302;2023-02-01T05:15:14;6.05;;;2.67;;
70071;SDS011;57434;42.794;23.302;2023-02-01T05:16:16;6.03;;;2.72;;
70071;SDS011;57434;42.794;23.302;2023-02-01T05:17:18;7.43;;;2.63;;
70071;SDS011;57434;42.794;23.302;2023-02-01T05:18:19;7.82;;;3.03;;
70071;SDS011;57434;42.794;23.302;2023-02-01T05:19:21;7.45;;;3.38;;
70071;SDS011;57434;42.794;23.302;2023-02-01T05:20:23;6.43;;;2.17;;
70071;SDS011;57434;42.794;23.302;2023-02-01T05:21:26;8.52;;;3.22;;
70071;SDS011;57434;42.794;23.302;2023-02-01T05:22:28;9.38;;;3.78;;
70071;SDS011;57434;42.794;23.302;2023-02-01T05:23:29;6.57;;;2.90;;
70071;SDS011;57434;42.794;23.302;2023-02-01T05:24:31;8.20;;;3.47;;
70071;SDS011;57434;42.794;23.302;2023-02-01T05:25:33;7.30;;;3.30;;
70071;SDS011;57434;42.794;23.302;2023-02-01T05:26:35;6.65;;;3.35;;
70071;SDS011;57434;42.794;23.302;2023-02-01T05:27:38;9.43;;;3.47;;
70071;SDS011;57434;42.794;23.302;2023-02-01T05:28:40;9.50;;;3.17;;
70071;SDS011;57434;42.794;23.302;2023-02-01T05:29:41;6.93;;;3.63;;
70071;SDS011;57434;42.794;23.302;2023-02-01T05:30:43;6.07;;;2.83;;
70071;SDS011;57434;42.794;23.302;2023-02-01T05:31:45;10.40;;;4.30;;
70071;SDS011;57434;42.794;23.302;2023-02-01T05:32:51;15.00;;;4.07;;
70071;SDS011;57434;42.794;23.302;2023-02-01T05:33:53;9.55;;;3.50;;
70071;SDS011;57434;42.794;23.302;2023-02-01T05:34:55;7.35;;;2.83;;
70071;SDS011;57434;42.794;23.302;2023-02-01T05:35:57;8.20;;;3.25;;
70071;SDS011;57434;42.794;23.302;2023-02-01T05:36:59;11.27;;;3.08;;
70071;SDS011;57434;42.794;23.302;2023-02-01T05:38:00;10.50;;;3.50;;
70071;SDS011;57434;42.794;23.302;2023-02-01T05:39:02;8.82;;;4.10;;
70071;SDS011;57434;42.794;23.302;2023-02-01T05:40:05;6.97;;;2.55;;
70071;SDS011;57434;42.794;23.302;2023-02-01T05:41:07;13.23;;;3.80;;
70071;SDS011;57434;42.794;23.302;2023-02-01T05:42:09;9.23;;;2.90;;
70071;SDS011;57434;42.794;23.302;2023-02-01T05:43:10;11.77;;;3.92;;
70071;SDS011;57434;42.794;23.302;2023-02-01T05:44:12;9.20;;;3.28;;
70071;SDS011;57434;42.794;23.302;2023-02-01T05:45:14;7.82;;;3.13;;
70071;SDS011;57434;42.794;23.302;2023-02-01T05:46:16;10.25;;;3.63;;
70071;SDS011;57434;42.794;23.302;2023-02-01T05:47:18;10.27;;;3.33;;
70071;SDS011;57434;42.794;23.302;2023-02-01T05:48:19;8.85;;;3.40;;
70071;SDS011;57434;42.794;23.302;2023-02-01T05:49:21;13.73;;;4.20;;
70071;SDS011;57434;42.794;23.302;2023-02-01T05:50:23;8.90;;;3.17;;
70071;SDS011;57434;42.794;23.302;2023-02-01T05:51:25;11.20;;;3.40;;
70071;SDS011;57434;42.794;23.302;2023-02-01T05:52:27;9.07;;;3.63;;
70071;SDS011;57434;42.794;23.302;2023-02-01T05:53:29;10.35;;;3.83;;
70071;SDS011;57434;42.794;23.302;2023-02-01T05:54:31;6.85;;;2.83;;
70071;SDS011;57434;42.794;23.302;2023-02-01T05:55:32;6.95;;;2.30;;
70071;SDS011;57434;42.794;23.302;2023-02-01T05:56:34;6.70;;;2.80;;
70071;SDS011;57434;42.794;23.302;2023-02-01T05:57:36;5.00;;;2.13;;
70071;SDS011;57434;42.794;23.302;2023-02-01T05:58:38;7.55;;;2.47;;
70071;SDS011;57434;42.794;23.302;2023-02-01T05:59:39;7.03;;;3.00;;
70071;SDS011;57434;42.794;23.302;2023-02-01T06:00:41;8.52;;;3.00;;
70071;SDS011;57434;42.794;23.302;2023-02-01T06:01:43;5.90;;;1.90;;
70071;SDS011;57434;42.794;23.302;2023-02-01T06:02:45;4.72;;;1.92;;
70071;SDS011;57434;42.794;23.302;2023-02-01T06:03:48;6.90;;;3.28;;
70071;SDS011;57434;42.794;23.302;2023-02-01T06:04:50;8.50;;;2.80;;
70071;SDS011;57434;42.794;23.302;2023-02-01T06:05:52;9.38;;;2.78;;
70071;SDS011;57434;42.794;23.302;2023-02-01T06:06:54;4.32;;;1.92;;
70071;SDS011;57434;42.794;23.302;2023-02-01T06:07:56;6.82;;;2.08;;
70071;SDS011;57434;42.794;23.302;2023-02-01T06:08:58;6.53;;;2.50;;
70071;SDS011;57434;42.794;23.302;2023-02-01T06:10:00;7.45;;;3.10;;
70071;SDS011;57434;42.794;23.302;2023-02-01T06:11:05;5.07;;;2.28;;
70071;SDS011;57434;42.794;23.302;2023-02-01T06:12:07;5.77;;;2.37;;
70071;SDS011;57434;42.794;23.302;2023-02-01T06:13:09;7.22;;;2.65;;
70071;SDS011;57434;42.794;23.302;2023-02-01T06:14:11;7.93;;;2.70;;
70071;SDS011;57434;42.794;23.302;2023-02-01T06:15:14;5.20;;;2.22;;
70071;SDS011;57434;42.794;23.302;2023-02-01T06:16:16;9.68;;;2.78;;
70071;SDS011;57434;42.794;23.302;2023-02-01T06:17:18;11.68;;;2.78;;
70071;SDS011;57434;42.794;23.302;2023-02-01T06:18:20;7.53;;;2.28;;
70071;SDS011;57434;42.794;23.302;2023-02-01T06:19:22;7.13;;;2.92;;
70071;SDS011;57434;42.794;23.302;2023-02-01T06:20:24;6.85;;;2.33;;
70071;SDS011;57434;42.794;23.302;2023-02-01T06:21:26;7.22;;;2.75;;
70071;SDS011;57434;42.794;23.302;2023-02-01T06:22:28;7.73;;;2.67;;
70071;SDS011;57434;42.794;23.302;2023-02-01T06:23:30;6.30;;;2.75;;
70071;SDS011;57434;42.794;23.302;2023-02-01T06:24:32;10.13;;;2.63;;
70071;SDS011;57434;42.794;23.302;2023-02-01T06:25:34;8.57;;;1.92;;
70071;SDS011;57434;42.794;23.302;2023-02-01T06:26:36;8.23;;;2.67;;
70071;SDS011;57434;42.794;23.302;2023-02-01T06:27:38;7.15;;;2.33;;
70071;SDS011;57434;42.794;23.302;2023-02-01T06:28:40;10.88;;;2.63;;
70071;SDS011;57434;42.794;23.302;2023-02-01T06:29:42;8.40;;;2.47;;
70071;SDS011;57434;42.794;23.302;2023-02-01T06:30:43;6.80;;;2.20;;
70071;SDS011;57434;42.794;23.302;2023-02-01T06:31:46;7.95;;;2.28;;
70071;SDS011;57434;42.794;23.302;2023-02-01T06:32:50;9.80;;;2.07;;
70071;SDS011;57434;42.794;23.302;2023-02-01T06:33:52;7.15;;;2.67;;
70071;SDS011;57434;42.794;23.302;2023-02-01T06:34:54;7.03;;;2.28;;
70071;SDS011;57434;42.794;23.302;2023-02-01T06:35:57;7.05;;;2.20;;
70071;SDS011;57434;42.794;23.302;2023-02-01T06:36:59;8.45;;;2.35;;
70071;SDS011;57434;42.794;23.302;2023-02-01T06:38:01;5.93;;;2.15;;
70071;SDS011;57434;42.794;23.302;2023-02-01T06:39:03;7.22;;;2.08;;
70071;SDS011;57434;42.794;23.302;2023-02-01T06:40:05;12.98;;;2.90;;
70071;SDS011;57434;42.794;23.302;2023-02-01T06:41:08;7.93;;;2.65;;
70071;SDS011;57434;42.794;23.302;2023-02-01T06:42:10;8.50;;;2.72;;
70071;SDS011;57434;42.794;23.302;2023-02-01T06:43:12;6.13;;;2.70;;
70071;SDS011;57434;42.794;23.302;2023-02-01T06:44:14;9.57;;;3.17;;
70071;SDS011;57434;42.794;23.302;2023-02-01T06:45:17;8.93;;;2.88;;